Time;durP1;ratioP1;P1;durP2;ratioP2;P2;SDS_P1;SDS_P2;PMS_P1;PMS_P2;Temp;Humidity;BMP_temperature;BMP_pressure;BME280_temperature;BME280_humidity;BME280_pressure;Samples;Min_cycle;Max_cycle;Signal;HPM_P1;HPM_P2
2023/05/23 00:00:13;;;;;;;36.20;29.43;;;17.20;99.90;;;;;;5009878;28;20447;-70
2023/05/23 00:02:41;;;;;;;39.03;30.00;;;17.20;99.90;;;;;;5010039;28;20506;-70
2023/05/23 00:05:09;;;;;;;38.90;29.70;;;17.20;99.90;;;;;;5010350;28;20455;-70
2023/05/23 00:07:37;;;;;;;36.80;32.10;;;17.20;99.90;;;;;;5010422;28;21149;-70
2023/05/23 00:10:06;;;;;;;42.30;33.70;;;17.20;99.90;;;;;;5010076;28;20999;-70
2023/05/23 00:12:36;;;;;;;44.90;34.63;;;17.10;99.90;;;;;;5009922;28;20455;-69
2023/05/23 00:15:07;;;;;;;42.40;34.83;;;17.00;99.90;;;;;;5010095;28;20553;-70
2023/05/23 00:17:36;;;;;;;48.10;38.13;;;17.00;99.90;;;;;;5009981;28;20472;-70
2023/05/23 00:20:05;;;;;;;54.13;38.20;;;17.00;99.90;;;;;;5010243;28;20452;-70
2023/05/23 00:22:33;;;;;;;56.27;40.00;;;16.90;99.90;;;;;;5009731;28;21123;-70
2023/05/23 00:25:01;;;;;;;55.87;39.90;;;16.90;99.90;;;;;;5009572;28;20495;-70
2023/05/23 00:27:29;;;;;;;58.73;39.50;;;16.90;99.90;;;;;;5009974;28;20468;-70
2023/05/23 00:29:58;;;;;;;49.27;37.60;;;16.90;99.90;;;;;;5009593;28;20840;-71
2023/05/23 00:32:26;;;;;;;57.23;40.50;;;16.90;99.90;;;;;;5009851;28;20523;-70
2023/05/23 00:34:56;;;;;;;59.07;41.10;;;16.80;99.90;;;;;;5009555;28;20486;-70
2023/05/23 00:37:24;;;;;;;54.97;40.10;;;16.80;99.90;;;;;;5009261;28;20555;-70
2023/05/23 00:39:52;;;;;;;55.07;39.17;;;16.80;99.90;;;;;;5009898;28;20969;-72
2023/05/23 00:42:20;;;;;;;58.60;42.30;;;16.70;99.90;;;;;;5009460;28;20478;-70
2023/05/23 00:44:48;;;;;;;61.47;42.17;;;16.80;99.90;;;;;;5009725;28;20975;-70
2023/05/23 00:47:18;;;;;;;60.90;42.47;;;16.80;99.90;;;;;;5009845;28;20464;-70
2023/05/23 00:49:46;;;;;;;67.40;43.63;;;16.70;99.90;;;;;;5009928;28;20479;-70
2023/05/23 00:52:14;;;;;;;57.70;42.80;;;16.70;99.90;;;;;;5009767;28;20451;-70
2023/05/23 00:54:42;;;;;;;62.07;42.10;;;16.70;99.90;;;;;;5009514;28;20452;-70
2023/05/23 00:57:11;;;;;;;60.70;44.43;;;16.70;99.90;;;;;;5009922;28;20479;-70
2023/05/23 00:59:39;;;;;;;73.43;49.93;;;16.60;99.90;;;;;;5009413;28;20452;-70
2023/05/23 01:02:08;;;;;;;68.97;45.87;;;16.60;99.90;;;;;;5009627;28;20946;-70
2023/05/23 01:04:38;;;;;;;69.03;47.63;;;16.60;99.90;;;;;;5009402;28;20539;-70
2023/05/23 01:07:06;;;;;;;72.07;45.53;;;16.60;99.90;;;;;;5009600;28;20470;-70
2023/05/23 01:09:34;;;;;;;74.30;48.60;;;16.60;99.90;;;;;;5009582;28;20451;-70
2023/05/23 01:12:16;;;;;;;75.57;49.37;;;16.50;99.90;;;;;;5009711;28;20538;-71
2023/05/23 01:14:51;;;;;;;83.00;51.90;;;16.50;99.90;;;;;;5009534;28;21004;-70
2023/05/23 01:17:26;;;;;;;81.47;51.57;;;16.50;99.90;;;;;;5009412;28;20886;-70
2023/05/23 01:20:03;;;;;;;80.77;51.43;;;16.60;99.90;;;;;;5009533;28;20893;-70
2023/05/23 01:22:59;;;;;;;85.53;53.07;;;16.50;99.90;;;;;;5009256;28;20449;-70
2023/05/23 01:25:46;;;;;;;77.27;50.50;;;16.50;99.90;;;;;;5009621;28;20444;-71
2023/05/23 01:28:19;;;;;;;78.57;50.57;;;16.50;99.90;;;;;;5009860;28;20466;-71
2023/05/23 01:30:51;;;;;;;75.27;51.30;;;16.50;99.90;;;;;;5009682;28;20529;-70
2023/05/23 01:33:22;;;;;;;80.37;53.20;;;16.60;99.90;;;;;;5009568;28;20456;-71
2023/05/23 01:35:51;;;;;;;86.70;54.10;;;16.50;99.90;;;;;;5010022;28;20514;-70
2023/05/23 01:38:19;;;;;;;88.10;54.63;;;16.60;99.90;;;;;;5009765;28;21002;-70
2023/05/23 01:40:47;;;;;;;75.00;52.33;;;16.50;99.90;;;;;;5009535;28;20539;-70
2023/05/23 01:43:16;;;;;;;87.13;57.83;;;16.50;99.90;;;;;;5009489;28;20461;-70
2023/05/23 01:45:44;;;;;;;89.37;56.50;;;16.60;99.90;;;;;;5009429;28;20449;-70
2023/05/23 01:48:13;;;;;;;94.90;56.67;;;16.60;99.90;;;;;;5012308;28;20459;-70
2023/05/23 01:50:44;;;;;;;87.03;57.33;;;16.60;99.90;;;;;;5012860;28;20550;-70
2023/05/23 01:53:13;;;;;;;95.07;56.23;;;16.60;99.90;;;;;;5012444;28;20869;-70
2023/05/23 01:55:42;;;;;;;88.00;57.83;;;16.60;99.90;;;;;;5012755;28;20444;-71
2023/05/23 01:58:10;;;;;;;87.70;56.53;;;16.60;99.90;;;;;;5012418;28;20469;-70
2023/05/23 02:00:39;;;;;;;85.20;57.80;;;16.50;99.90;;;;;;5012648;28;20524;-70
2023/05/23 02:03:07;;;;;;;89.90;55.43;;;16.50;99.90;;;;;;5011390;28;20449;-70
2023/05/23 02:05:35;;;;;;;93.43;58.43;;;16.40;99.90;;;;;;5012466;28;20942;-70
2023/05/23 02:08:03;;;;;;;96.30;59.80;;;16.50;99.90;;;;;;5012598;28;20548;-70
2023/05/23 02:10:31;;;;;;;87.90;55.63;;;16.50;99.90;;;;;;5012322;28;20481;-70
2023/05/23 02:12:59;;;;;;;86.27;56.57;;;16.50;99.90;;;;;;5012190;28;20448;-70
2023/05/23 02:15:27;;;;;;;88.67;59.53;;;16.50;99.90;;;;;;5012016;28;20961;-71
2023/05/23 02:17:56;;;;;;;88.13;57.80;;;16.50;99.90;;;;;;5012257;28;21046;-71
2023/05/23 02:20:24;;;;;;;91.37;57.67;;;16.50;99.90;;;;;;5012009;28;20527;-70
2023/05/23 02:22:52;;;;;;;90.67;59.27;;;16.40;99.90;;;;;;5013172;28;20475;-71
2023/05/23 02:25:20;;;;;;;93.70;58.20;;;16.40;99.90;;;;;;5013719;28;20455;-71
2023/05/23 02:27:48;;;;;;;92.77;58.73;;;16.40;99.90;;;;;;5012862;28;20983;-71
2023/05/23 02:30:16;;;;;;;99.80;58.93;;;16.40;99.90;;;;;;5012263;28;20860;-70
2023/05/23 02:32:45;;;;;;;89.40;57.30;;;16.50;99.90;;;;;;5011782;28;20876;-71
2023/05/23 02:35:14;;;;;;;86.43;58.97;;;16.60;99.90;;;;;;5012068;28;20452;-71
2023/05/23 02:37:42;;;;;;;85.70;57.00;;;16.60;99.90;;;;;;5011987;28;20507;-70
2023/05/23 02:40:11;;;;;;;95.17;59.50;;;16.70;99.90;;;;;;5012217;28;20442;-71
2023/05/23 02:42:38;;;;;;;81.17;56.00;;;16.80;99.90;;;;;;5011619;28;20556;-70
2023/05/23 02:45:08;;;;;;;94.20;59.73;;;16.80;99.90;;;;;;5011573;28;20568;-71
2023/05/23 02:47:36;;;;;;;87.83;59.40;;;16.90;99.90;;;;;;5011939;28;20503;-70
2023/05/23 02:50:04;;;;;;;79.97;59.50;;;16.90;99.90;;;;;;5011722;28;20516;-70
2023/05/23 02:52:34;;;;;;;86.17;57.97;;;16.90;99.90;;;;;;5011578;28;21054;-71
2023/05/23 02:55:02;;;;;;;85.37;56.30;;;17.00;99.90;;;;;;5011831;28;20477;-71
2023/05/23 02:57:30;;;;;;;82.80;57.50;;;17.00;99.90;;;;;;5011624;28;20496;-70
2023/05/23 02:59:58;;;;;;;82.83;58.83;;;17.00;99.90;;;;;;5010867;28;20453;-70
2023/05/23 03:02:25;;;;;;;82.33;56.67;;;16.90;99.90;;;;;;5011367;28;20465;-71
2023/05/23 03:04:54;;;;;;;81.90;59.57;;;16.90;99.90;;;;;;5011790;28;20441;-71
2023/05/23 03:07:22;;;;;;;85.37;59.03;;;17.00;99.90;;;;;;5011465;28;20505;-71
2023/05/23 03:09:57;;;;;;;78.43;57.90;;;17.00;99.90;;;;;;5011470;28;20442;-71
2023/05/23 03:12:25;;;;;;;81.10;57.10;;;17.00;99.90;;;;;;5011213;28;20557;-71
2023/05/23 03:14:53;;;;;;;79.37;58.00;;;17.00;99.90;;;;;;5011252;28;20947;-71
2023/05/23 03:17:20;;;;;;;77.47;56.37;;;17.00;99.90;;;;;;5011761;28;20461;-71
2023/05/23 03:19:48;;;;;;;79.60;56.90;;;17.00;99.90;;;;;;5011622;28;20452;-71
2023/05/23 03:22:16;;;;;;;74.63;56.50;;;17.10;99.90;;;;;;5011430;28;20441;-71
2023/05/23 03:24:44;;;;;;;75.53;56.07;;;17.10;99.90;;;;;;5010864;28;20441;-71
2023/05/23 03:27:14;;;;;;;78.87;54.80;;;17.10;99.90;;;;;;5011657;28;20460;-71
2023/05/23 03:29:41;;;;;;;74.13;55.27;;;17.10;99.90;;;;;;5011298;28;20444;-72
2023/05/23 03:32:09;;;;;;;79.30;57.77;;;17.00;99.90;;;;;;5011176;28;20867;-71
2023/05/23 03:34:37;;;;;;;73.87;54.87;;;17.10;99.90;;;;;;5011520;28;20804;-71
2023/05/23 03:37:05;;;;;;;82.20;56.33;;;17.10;99.90;;;;;;5010689;28;20496;-68
2023/05/23 03:39:33;;;;;;;75.07;56.90;;;17.10;99.90;;;;;;5010999;28;20456;-70
2023/05/23 03:42:02;;;;;;;74.80;55.03;;;17.10;99.90;;;;;;5010866;28;20442;-70
2023/05/23 03:44:31;;;;;;;79.20;56.03;;;17.00;99.90;;;;;;5010665;28;20529;-70
2023/05/23 03:46:59;;;;;;;79.50;56.50;;;17.00;99.90;;;;;;5010695;28;20473;-71
2023/05/23 03:49:27;;;;;;;75.93;54.30;;;17.00;99.90;;;;;;5010562;28;20438;-71
2023/05/23 03:51:55;;;;;;;77.43;55.03;;;17.10;99.90;;;;;;5010531;28;20836;-71
2023/05/23 03:54:23;;;;;;;77.80;54.80;;;17.10;99.90;;;;;;5010145;28;20524;-70
2023/05/23 03:56:51;;;;;;;63.37;51.47;;;17.00;99.90;;;;;;5010681;28;20562;-71
2023/05/23 03:59:19;;;;;;;71.03;54.43;;;17.00;99.90;;;;;;5010382;28;20452;-71
2023/05/23 04:01:48;;;;;;;69.40;54.20;;;17.00;99.90;;;;;;5010293;28;20818;-70
2023/05/23 04:04:17;;;;;;;67.13;52.13;;;17.00;99.90;;;;;;5009931;28;20448;-71
2023/05/23 04:06:45;;;;;;;65.70;52.27;;;17.00;99.90;;;;;;5010047;28;20472;-70
2023/05/23 04:09:13;;;;;;;66.23;50.60;;;17.00;99.90;;;;;;5010550;28;20813;-71
2023/05/23 04:11:41;;;;;;;76.37;55.00;;;17.00;99.90;;;;;;5010377;28;21206;-70
2023/05/23 04:14:09;;;;;;;67.50;52.67;;;17.00;99.90;;;;;;5010273;28;20477;-70
2023/05/23 04:16:40;;;;;;;71.03;53.90;;;17.00;99.90;;;;;;5010137;28;20883;-71
2023/05/23 04:19:11;;;;;;;70.40;52.90;;;16.90;99.90;;;;;;5010387;28;20440;-70
2023/05/23 04:21:39;;;;;;;64.73;49.60;;;17.00;99.90;;;;;;5010363;28;21224;-71
2023/05/23 04:24:07;;;;;;;71.40;54.77;;;17.00;99.90;;;;;;5009467;28;20553;-69
2023/05/23 04:26:36;;;;;;;69.67;51.80;;;17.00;99.90;;;;;;5010082;28;20544;-70
2023/05/23 04:29:04;;;;;;;62.90;48.57;;;17.00;99.90;;;;;;5009848;28;20449;-75
2023/05/23 04:31:34;;;;;;;63.67;51.53;;;17.00;99.90;;;;;;5010260;28;20450;-75
2023/05/23 04:34:02;;;;;;;65.20;50.60;;;17.10;99.90;;;;;;5009759;28;20521;-71
2023/05/23 04:36:31;;;;;;;61.17;48.40;;;17.20;99.90;;;;;;5009847;28;20460;-70
2023/05/23 04:38:59;;;;;;;64.60;51.60;;;17.30;99.90;;;;;;5010086;28;20450;-72
2023/05/23 04:41:27;;;;;;;63.93;51.47;;;17.20;99.90;;;;;;5009685;28;20459;-71
2023/05/23 04:43:57;;;;;;;66.67;50.20;;;17.20;99.90;;;;;;5009529;28;20986;-72
2023/05/23 04:46:26;;;;;;;66.20;51.63;;;17.30;99.90;;;;;;5009712;28;20844;-72
2023/05/23 04:48:55;;;;;;;57.63;49.20;;;17.30;99.90;;;;;;5009862;28;20943;-69
2023/05/23 04:51:23;;;;;;;60.43;48.07;;;17.30;99.90;;;;;;5009628;28;20533;-68
2023/05/23 04:53:53;;;;;;;62.10;49.10;;;17.30;99.90;;;;;;5008980;28;21070;-68
2023/05/23 04:56:21;;;;;;;57.77;47.80;;;17.30;99.90;;;;;;5009636;28;20873;-69
2023/05/23 04:58:49;;;;;;;59.00;47.63;;;17.30;99.90;;;;;;5009477;28;20450;-69
2023/05/23 05:01:17;;;;;;;65.00;48.73;;;17.40;99.90;;;;;;5009694;28;20450;-68
2023/05/23 05:03:46;;;;;;;58.33;48.03;;;17.50;99.90;;;;;;5009205;28;20452;-70
2023/05/23 05:06:15;;;;;;;61.10;49.70;;;17.50;99.90;;;;;;5009642;28;20448;-71
2023/05/23 05:08:43;;;;;;;60.97;49.87;;;17.50;99.90;;;;;;5009691;28;20902;-71
2023/05/23 05:11:12;;;;;;;61.00;48.43;;;17.60;99.90;;;;;;5009368;28;20449;-71
2023/05/23 05:13:40;;;;;;;57.57;47.47;;;17.70;99.90;;;;;;5009924;28;20513;-72
2023/05/23 05:16:08;;;;;;;57.30;46.70;;;17.80;99.90;;;;;;5005808;28;20462;-71
2023/05/23 05:18:36;;;;;;;55.83;45.00;;;17.80;99.90;;;;;;5012430;28;20552;-70
2023/05/23 05:21:05;;;;;;;57.03;47.63;;;17.90;99.90;;;;;;5007272;28;20486;-71
2023/05/23 05:23:33;;;;;;;53.50;46.70;;;17.80;99.90;;;;;;5013976;28;20444;-69
2023/05/23 05:26:02;;;;;;;55.10;46.83;;;17.80;99.90;;;;;;5014546;28;20576;-73
2023/05/23 05:28:31;;;;;;;51.97;44.37;;;17.70;99.90;;;;;;5009525;28;20868;-73
2023/05/23 05:31:03;;;;;;;59.40;48.10;;;17.70;99.90;;;;;;5011516;28;21081;-73
2023/05/23 05:33:34;;;;;;;61.73;47.40;;;17.70;99.90;;;;;;5002528;28;21058;-73
2023/05/23 05:36:03;;;;;;;52.53;45.73;;;17.80;99.90;;;;;;4992382;28;20478;-73
2023/05/23 05:38:31;;;;;;;51.63;44.60;;;17.90;99.90;;;;;;4991953;28;20883;-74
2023/05/23 05:40:59;;;;;;;54.83;43.87;;;17.90;99.90;;;;;;4992765;28;20450;-73
2023/05/23 05:43:27;;;;;;;50.80;43.50;;;18.00;99.90;;;;;;4993495;28;20442;-73
2023/05/23 05:45:56;;;;;;;52.10;44.70;;;18.10;99.90;;;;;;4993530;28;20450;-73
2023/05/23 05:48:24;;;;;;;46.03;41.07;;;18.20;99.90;;;;;;4993562;28;20520;-73
2023/05/23 05:50:52;;;;;;;49.53;44.20;;;18.30;99.90;;;;;;4993773;28;20442;-73
2023/05/23 05:53:20;;;;;;;48.90;43.40;;;18.50;99.90;;;;;;4997061;28;20488;-73
2023/05/23 05:55:48;;;;;;;52.70;43.97;;;18.50;99.90;;;;;;5013606;28;20484;-74
2023/05/23 05:58:16;;;;;;;46.67;41.60;;;18.50;99.90;;;;;;5014202;28;20473;-74
2023/05/23 06:00:44;;;;;;;50.23;44.67;;;18.50;99.90;;;;;;5013429;28;20963;-73
2023/05/23 06:03:14;;;;;;;51.10;45.60;;;18.40;99.90;;;;;;5012853;28;20446;-74
2023/05/23 06:05:42;;;;;;;51.70;44.20;;;18.30;99.90;;;;;;5013196;28;20436;-73
2023/05/23 06:08:10;;;;;;;48.27;43.13;;;18.10;99.90;;;;;;5012599;28;20548;-72
2023/05/23 06:10:39;;;;;;;50.53;43.93;;;18.10;99.90;;;;;;5012671;28;20544;-72
2023/05/23 06:13:07;;;;;;;46.90;42.10;;;18.10;99.90;;;;;;5012170;28;21100;-71
2023/05/23 06:15:35;;;;;;;48.10;43.00;;;18.20;99.90;;;;;;5012537;28;20548;-73
2023/05/23 06:18:03;;;;;;;47.50;42.37;;;18.20;99.90;;;;;;5012720;28;20465;-73
2023/05/23 06:20:32;;;;;;;47.23;42.03;;;18.40;99.90;;;;;;5012648;28;20822;-72
2023/05/23 06:23:04;;;;;;;49.57;42.40;;;18.50;99.90;;;;;;5012199;28;20500;-72
2023/05/23 06:25:32;;;;;;;49.93;44.40;;;18.50;99.90;;;;;;5012259;28;20859;-75
2023/05/23 06:28:00;;;;;;;46.67;41.87;;;18.70;99.90;;;;;;5010650;28;20478;-74
2023/05/23 06:30:29;;;;;;;44.67;40.03;;;18.80;99.90;;;;;;5011781;28;20447;-74
2023/05/23 06:32:57;;;;;;;45.70;40.43;;;18.80;99.80;;;;;;5010180;28;20928;-74
2023/05/23 06:35:25;;;;;;;47.70;42.57;;;18.90;99.30;;;;;;5011599;28;20504;-74
2023/05/23 06:37:54;;;;;;;43.03;38.63;;;18.80;99.20;;;;;;5011741;28;20488;-74
2023/05/23 06:40:22;;;;;;;47.70;42.70;;;18.70;99.50;;;;;;5011463;28;20556;-74
2023/05/23 06:42:50;;;;;;;44.63;39.93;;;18.70;99.30;;;;;;5012078;28;20445;-75
2023/05/23 06:45:18;;;;;;;47.43;40.70;;;18.60;99.80;;;;;;5012400;28;20445;-72
2023/05/23 06:47:47;;;;;;;49.03;42.97;;;18.50;99.90;;;;;;5011923;28;20998;-71
2023/05/23 06:50:18;;;;;;;49.33;44.00;;;18.40;99.90;;;;;;5011925;28;20545;-72
2023/05/23 06:52:46;;;;;;;52.73;43.07;;;18.30;99.90;;;;;;5011313;28;20446;-70
2023/05/23 06:55:18;;;;;;;48.13;43.03;;;18.10;99.90;;;;;;5011885;28;20458;-73
2023/05/23 06:57:49;;;;;;;48.43;43.20;;;18.10;99.90;;;;;;5011423;28;20500;-72
2023/05/23 07:00:17;;;;;;;49.67;44.37;;;18.10;99.90;;;;;;5011681;28;20465;-71
2023/05/23 07:02:47;;;;;;;50.57;45.13;;;18.00;99.90;;;;;;5011307;28;20802;-72
2023/05/23 07:05:16;;;;;;;51.00;45.03;;;18.10;99.90;;;;;;5011555;28;20458;-72
2023/05/23 07:07:44;;;;;;;51.77;46.27;;;18.00;99.90;;;;;;5010870;28;20474;-72
2023/05/23 07:10:12;;;;;;;48.00;42.90;;;18.10;99.90;;;;;;5011535;28;20537;-72
2023/05/23 07:12:41;;;;;;;48.70;43.40;;;18.00;99.90;;;;;;5010981;28;20508;-73
2023/05/23 07:15:11;;;;;;;48.03;42.83;;;17.90;99.90;;;;;;5009786;28;20528;-74
2023/05/23 07:17:39;;;;;;;44.97;40.17;;;17.80;99.90;;;;;;5011475;28;20465;-74
2023/05/23 07:20:08;;;;;;;43.80;39.10;;;17.70;99.90;;;;;;5011585;28;20461;-72
2023/05/23 07:22:36;;;;;;;38.00;33.90;;;17.60;99.90;;;;;;5010252;28;20477;-71
2023/05/23 07:25:05;;;;;;;36.50;32.77;;;17.50;99.70;;;;;;4991796;28;21023;-70
2023/05/23 07:27:33;;;;;;;35.20;31.73;;;17.50;99.40;;;;;;4992068;28;20529;-70
2023/05/23 07:30:03;;;;;;;35.00;31.50;;;17.50;99.10;;;;;;5011272;28;20454;-70
2023/05/23 07:32:31;;;;;;;34.73;31.03;;;17.50;98.90;;;;;;5010662;28;20477;-71
2023/05/23 07:34:59;;;;;;;33.37;29.87;;;17.50;98.50;;;;;;5030237;28;20492;-69
2023/05/23 07:37:27;;;;;;;31.77;28.40;;;17.50;98.30;;;;;;5030455;28;20480;-70
2023/05/23 07:39:55;;;;;;;33.60;30.13;;;17.60;97.70;;;;;;5030453;28;20476;-70
2023/05/23 07:42:23;;;;;;;29.47;26.60;;;17.70;97.20;;;;;;5030188;28;20881;-69
2023/05/23 07:44:50;;;;;;;30.93;27.70;;;17.80;96.40;;;;;;5029565;28;20451;-70
2023/05/23 07:47:20;;;;;;;30.40;27.13;;;18.00;96.60;;;;;;5030396;28;20526;-71
2023/05/23 07:49:48;;;;;;;29.90;26.83;;;18.30;95.60;;;;;;5030211;28;20536;-72
2023/05/23 07:52:16;;;;;;;29.77;26.73;;;18.50;95.10;;;;;;5030297;28;20453;-72
2023/05/23 07:54:44;;;;;;;29.93;27.07;;;18.80;95.10;;;;;;5029635;28;20472;-72
2023/05/23 07:57:14;;;;;;;30.37;27.30;;;19.20;94.00;;;;;;5030283;28;20496;-72
2023/05/23 07:59:42;;;;;;;29.10;26.23;;;19.30;92.60;;;;;;5029607;28;20928;-73
2023/05/23 08:02:10;;;;;;;30.03;27.03;;;19.20;92.50;;;;;;5030387;28;20465;-73
2023/05/23 08:04:40;;;;;;;30.90;27.77;;;19.00;92.20;;;;;;5025745;28;20476;-72
2023/05/23 08:07:10;;;;;;;31.17;28.07;;;18.90;92.80;;;;;;5013395;28;20476;-72
2023/05/23 08:09:39;;;;;;;29.53;26.67;;;18.80;92.70;;;;;;5007110;28;20917;-72
2023/05/23 08:12:09;;;;;;;29.67;26.67;;;18.80;92.30;;;;;;5008423;28;20450;-72
2023/05/23 08:14:37;;;;;;;32.93;29.40;;;18.80;92.80;;;;;;5010067;28;20485;-70
2023/05/23 08:17:19;;;;;;;30.00;27.40;;;18.80;92.30;;;;;;5009348;28;20555;-74
2023/05/23 08:19:48;;;;;;;29.67;26.67;;;18.60;92.70;;;;;;5007276;28;20505;-74
2023/05/23 08:22:16;;;;;;;28.50;25.60;;;18.60;92.70;;;;;;5009694;28;20586;-74
2023/05/23 08:24:44;;;;;;;28.53;25.30;;;18.50;92.30;;;;;;5013572;28;20506;-75
2023/05/23 08:27:13;;;;;;;29.83;26.83;;;18.40;92.20;;;;;;5003184;28;20466;-76
2023/05/23 08:29:43;;;;;;;28.83;25.90;;;18.30;92.30;;;;;;5008709;28;20453;-75
2023/05/23 08:32:11;;;;;;;28.53;25.87;;;18.60;92.70;;;;;;5007811;28;20972;-74
2023/05/23 08:34:40;;;;;;;28.53;25.63;;;18.70;92.50;;;;;;5006481;28;20485;-74
2023/05/23 08:37:09;;;;;;;27.87;24.90;;;18.90;92.70;;;;;;5008920;28;20474;-75
2023/05/23 08:39:38;;;;;;;29.17;26.27;;;19.20;91.60;;;;;;5009928;28;20446;-75
2023/05/23 08:42:06;;;;;;;25.80;23.20;;;19.30;91.30;;;;;;5000715;28;20860;-75
2023/05/23 08:44:34;;;;;;;26.67;24.17;;;19.40;90.30;;;;;;4993502;28;20500;-71
2023/05/23 08:47:05;;;;;;;27.57;24.93;;;19.50;88.80;;;;;;5000326;28;21040;-72
2023/05/23 08:49:33;;;;;;;25.13;22.80;;;19.20;89.80;;;;;;5010660;28;20445;-73
2023/05/23 08:52:03;;;;;;;28.60;22.60;;;18.90;90.20;;;;;;5010253;28;20446;-73
2023/05/23 08:54:36;;;;;;;24.27;21.97;;;19.00;90.80;;;;;;5010602;28;20489;-74
2023/05/23 08:57:06;;;;;;;24.23;21.97;;;19.00;90.10;;;;;;5011627;28;20814;-73
2023/05/23 08:59:38;;;;;;;23.13;21.00;;;19.00;90.50;;;;;;5014480;28;20454;-73
2023/05/23 09:02:10;;;;;;;22.47;20.37;;;19.10;90.50;;;;;;5013820;28;20893;-73
2023/05/23 09:04:45;;;;;;;22.27;20.17;;;19.20;89.30;;;;;;5013600;28;20512;-73
2023/05/23 09:07:16;;;;;;;22.60;20.63;;;19.10;88.40;;;;;;5011818;28;20548;-74
2023/05/23 09:09:45;;;;;;;22.20;20.20;;;19.20;88.90;;;;;;5013783;28;20491;-73
2023/05/23 09:12:16;;;;;;;23.07;20.90;;;19.20;87.70;;;;;;5013678;28;20528;-73
2023/05/23 09:14:45;;;;;;;22.73;20.60;;;19.00;87.90;;;;;;5013598;28;20540;-73
2023/05/23 09:17:17;;;;;;;22.63;20.43;;;19.00;88.30;;;;;;5012516;28;20472;-73
2023/05/23 09:19:46;;;;;;;21.60;19.67;;;19.10;87.40;;;;;;5027237;28;20465;-73
2023/05/23 09:22:19;;;;;;;21.30;19.40;;;19.50;88.80;;;;;;5016752;28;21164;-73
2023/05/23 09:24:51;;;;;;;22.20;20.30;;;19.90;86.50;;;;;;5000413;28;20532;-73
2023/05/23 09:27:19;;;;;;;22.90;20.80;;;20.20;85.40;;;;;;5025360;28;20510;-73
2023/05/23 09:29:47;;;;;;;23.33;21.20;;;20.10;82.70;;;;;;5025216;28;20532;-73
2023/05/23 09:32:16;;;;;;;21.37;19.27;;;19.90;84.10;;;;;;5017542;28;21043;-74
2023/05/23 09:34:56;;;;;;;22.63;20.47;;;20.00;83.80;;;;;;5029002;28;20469;-73
2023/05/23 09:37:30;;;;;;;21.63;19.73;;;19.90;83.80;;;;;;5021704;28;20838;-73
2023/05/23 09:40:00;;;;;;;20.03;18.20;;;20.10;82.30;;;;;;5019720;28;20442;-72
2023/05/23 09:42:32;;;;;;;20.80;18.77;;;20.20;82.20;;;;;;5029170;28;20433;-72
2023/05/23 09:45:01;;;;;;;22.20;19.90;;;20.20;81.10;;;;;;5018760;28;20535;-73
2023/05/23 09:47:31;;;;;;;20.53;18.47;;;20.20;80.70;;;;;;5023011;28;20468;-72
2023/05/23 09:49:59;;;;;;;20.80;18.90;;;20.00;81.70;;;;;;5026577;28;20452;-72
2023/05/23 09:52:27;;;;;;;19.33;17.53;;;19.60;82.00;;;;;;5013865;28;20446;-72
2023/05/23 09:54:55;;;;;;;18.27;16.80;;;19.60;83.30;;;;;;5012489;28;20471;-73
2023/05/23 09:57:25;;;;;;;17.83;16.27;;;19.60;84.30;;;;;;5020777;28;20469;-72
2023/05/23 09:59:54;;;;;;;19.53;17.43;;;19.70;82.10;;;;;;5015036;28;20508;-72
2023/05/23 10:02:52;;;;;;;18.97;17.30;;;19.40;81.60;;;;;;5017798;28;20554;-73
2023/05/23 10:05:31;;;;;;;17.37;15.80;;;19.30;83.10;;;;;;5024047;28;20496;-73
2023/05/23 10:08:02;;;;;;;18.97;17.20;;;19.50;83.20;;;;;;5025317;28;20465;-74
2023/05/23 10:10:35;;;;;;;18.63;16.93;;;19.40;82.70;;;;;;5015851;28;20442;-73
2023/05/23 10:13:06;;;;;;;23.80;15.50;;;19.30;81.60;;;;;;5028978;28;20437;-73
2023/05/23 10:15:39;;;;;;;18.00;16.30;;;19.20;81.80;;;;;;5021883;28;20505;-73
2023/05/23 10:18:12;;;;;;;19.53;17.77;;;19.20;81.80;;;;;;5025796;28;20808;-73
2023/05/23 10:20:43;;;;;;;16.77;15.27;;;19.40;83.00;;;;;;5027587;28;20452;-73
2023/05/23 10:23:12;;;;;;;17.73;15.97;;;19.70;81.50;;;;;;5018652;28;20444;-74
2023/05/23 10:25:41;;;;;;;16.80;15.10;;;19.90;81.00;;;;;;5020911;28;20465;-73
2023/05/23 10:28:14;;;;;;;17.37;15.70;;;19.90;80.00;;;;;;5026719;28;20496;-74
2023/05/23 10:30:42;;;;;;;18.03;16.23;;;19.90;79.70;;;;;;5014970;28;20863;-73
2023/05/23 10:33:15;;;;;;;16.60;15.10;;;19.80;79.30;;;;;;5024747;28;20488;-72
2023/05/23 10:35:52;;;;;;;17.10;15.60;;;20.10;78.10;;;;;;5023442;28;20484;-73
2023/05/23 10:38:30;;;;;;;17.23;15.53;;;20.00;77.30;;;;;;5003258;28;20505;-73
2023/05/23 10:41:05;;;;;;;16.00;14.50;;;19.90;76.70;;;;;;5002162;28;20939;-73
2023/05/23 10:43:44;;;;;;;16.70;14.23;;;19.80;77.50;;;;;;5021103;28;20437;-74
2023/05/23 10:46:13;;;;;;;15.57;13.83;;;19.90;77.60;;;;;;5026986;28;20437;-74
2023/05/23 10:48:43;;;;;;;14.57;13.27;;;20.00;75.90;;;;;;5014544;28;20500;-73
2023/05/23 10:51:13;;;;;;;15.50;14.10;;;20.20;76.40;;;;;;5024509;28;21032;-74
2023/05/23 10:53:42;;;;;;;14.50;13.30;;;20.30;74.00;;;;;;5021684;28;20441;-74
2023/05/23 10:56:11;;;;;;;14.20;12.80;;;20.30;73.90;;;;;;5016536;28;20543;-74
2023/05/23 10:58:41;;;;;;;14.70;13.43;;;20.50;72.50;;;;;;5027379;28;20536;-75
2023/05/23 11:01:09;;;;;;;13.27;12.10;;;20.70;73.00;;;;;;5017892;28;20476;-74
2023/05/23 11:03:48;;;;;;;14.53;13.37;;;20.70;73.80;;;;;;5012824;28;20442;-75
2023/05/23 11:06:32;;;;;;;13.77;12.53;;;20.80;72.60;;;;;;5027521;28;20432;-73
2023/05/23 11:09:04;;;;;;;13.30;12.13;;;20.90;70.20;;;;;;5002405;28;20943;-73
2023/05/23 11:12:03;;;;;;;13.77;11.93;;;20.90;70.10;;;;;;5015814;28;20469;-73
2023/05/23 11:14:51;;;;;;;11.73;10.63;;;21.00;71.10;;;;;;4968129;28;20450;-72
2023/05/23 11:17:32;;;;;;;11.30;10.20;;;21.20;70.60;;;;;;5002377;28;20453;-73
2023/05/23 11:20:05;;;;;;;11.50;10.50;;;21.10;70.80;;;;;;5002148;28;20434;-72
2023/05/23 11:22:34;;;;;;;11.43;10.43;;;21.20;68.70;;;;;;4999801;28;20995;-73
2023/05/23 11:25:07;;;;;;;10.43;9.63;;;21.20;69.20;;;;;;4999758;28;20431;-72
2023/05/23 11:27:37;;;;;;;10.73;9.83;;;21.20;68.00;;;;;;5000835;28;20467;-73
2023/05/23 11:30:08;;;;;;;8.67;7.97;;;21.30;66.90;;;;;;5002103;28;20434;-73
2023/05/23 11:32:36;;;;;;;10.10;9.10;;;21.30;66.20;;;;;;5006660;28;20463;-72
2023/05/23 11:35:07;;;;;;;10.97;10.10;;;21.70;64.30;;;;;;5011666;28;20470;-73
2023/05/23 11:37:38;;;;;;;10.03;9.23;;;21.90;64.20;;;;;;5011360;28;20886;-73
2023/05/23 11:40:26;;;;;;;15.53;12.27;;;21.70;65.20;;;;;;5011181;28;20937;-73
2023/05/23 11:42:55;;;;;;;12.57;11.47;;;21.70;68.30;;;;;;5010995;28;20446;-73
2023/05/23 11:45:25;;;;;;;13.93;12.67;;;21.40;69.20;;;;;;5010911;28;20529;-74
2023/05/23 11:47:55;;;;;;;15.63;14.23;;;21.40;70.90;;;;;;5010758;28;20466;-74
2023/05/23 11:50:24;;;;;;;14.73;13.33;;;20.90;70.30;;;;;;5010862;28;20488;-73
2023/05/23 11:52:54;;;;;;;13.50;12.50;;;20.60;71.70;;;;;;5010876;28;20888;-73
2023/05/23 11:55:23;;;;;;;13.50;12.30;;;20.70;71.90;;;;;;5010609;28;20527;-73
2023/05/23 11:57:51;;;;;;;13.10;11.90;;;20.70;70.90;;;;;;5010593;28;20497;-74
2023/05/23 12:00:20;;;;;;;13.20;12.00;;;21.00;71.80;;;;;;5010488;28;21178;-74
2023/05/23 12:02:50;;;;;;;13.57;12.27;;;21.40;68.50;;;;;;5005776;28;20450;-74
2023/05/23 12:05:18;;;;;;;12.10;11.10;;;21.30;67.90;;;;;;5001473;28;20446;-74
2023/05/23 12:07:48;;;;;;;12.33;11.23;;;21.20;68.80;;;;;;4999555;28;20485;-73
2023/05/23 12:10:16;;;;;;;12.10;11.07;;;21.30;67.70;;;;;;4997917;28;20445;-73
2023/05/23 12:12:45;;;;;;;12.17;11.07;;;21.40;66.20;;;;;;5026239;28;20994;-74
2023/05/23 12:15:13;;;;;;;10.77;9.87;;;21.40;63.60;;;;;;5016256;28;20437;-73
2023/05/23 12:17:44;;;;;;;11.23;10.33;;;21.60;65.50;;;;;;5019638;28;20498;-74
2023/05/23 12:20:14;;;;;;;10.37;9.57;;;22.00;64.10;;;;;;5024728;28;20468;-72
2023/05/23 12:22:43;;;;;;;10.57;9.70;;;22.20;65.40;;;;;;4995221;28;20443;-73
2023/05/23 12:25:11;;;;;;;12.10;10.90;;;23.00;60.50;;;;;;4991264;28;20447;-73
2023/05/23 12:27:42;;;;;;;11.17;10.27;;;23.50;58.50;;;;;;4990178;28;20470;-73
2023/05/23 12:30:13;;;;;;;10.60;9.67;;;23.40;60.90;;;;;;4990335;28;20546;-73
2023/05/23 12:32:42;;;;;;;11.07;10.23;;;23.40;59.20;;;;;;4989610;28;21024;-73
2023/05/23 12:35:12;;;;;;;10.93;9.80;;;23.10;60.60;;;;;;4990721;28;20476;-73
2023/05/23 12:37:45;;;;;;;9.73;8.83;;;22.50;60.00;;;;;;4990621;28;20491;-74
2023/05/23 12:40:15;;;;;;;10.80;9.90;;;21.90;63.10;;;;;;4992180;28;20505;-74